sensor_id;sensor_type;location;lat;lon;timestamp;pressure;altitude;pressure_sealevel;temperature;humidity
54172;BME280;40076;52.354;4.970;2022-10-19T00:00:19;103010.69;;;11.38;91.57
54172;BME280;40076;52.354;4.970;2022-10-19T00:02:44;103008.25;;;11.37;91.34
54172;BME280;40076;52.354;4.970;2022-10-19T00:05:09;103006.94;;;11.34;91.34
54172;BME280;40076;52.354;4.970;2022-10-19T00:07:34;103005.56;;;11.32;91.26
54172;BME280;40076;52.354;4.970;2022-10-19T00:10:00;103003.13;;;11.30;91.20
54172;BME280;40076;52.354;4.970;2022-10-19T00:12:25;102998.00;;;11.29;91.64
54172;BME280;40076;52.354;4.970;2022-10-19T00:14:50;103000.16;;;11.27;91.56
54172;BME280;40076;52.354;4.970;2022-10-19T00:17:16;103000.41;;;11.25;91.78
54172;BME280;40076;52.354;4.970;2022-10-19T00:19:41;102990.69;;;11.24;91.56
54172;BME280;40076;52.354;4.970;2022-10-19T00:22:06;102993.66;;;11.22;91.64
54172;BME280;40076;52.354;4.970;2022-10-19T00:24:32;102999.34;;;11.21;91.68
54172;BME280;40076;52.354;4.970;2022-10-19T00:26:57;103000.44;;;11.20;91.62
54172;BME280;40076;52.354;4.970;2022-10-19T00:29:23;102992.84;;;11.17;91.78
54172;BME280;40076;52.354;4.970;2022-10-19T00:31:49;102982.00;;;11.17;91.53
54172;BME280;40076;52.354;4.970;2022-10-19T00:34:14;102987.16;;;11.13;91.70
54172;BME280;40076;52.354;4.970;2022-10-19T00:36:40;102984.72;;;11.12;91.71
54172;BME280;40076;52.354;4.970;2022-10-19T00:39:09;102983.38;;;11.09;91.76
54172;BME280;40076;52.354;4.970;2022-10-19T00:41:35;102985.25;;;11.09;91.73
54172;BME280;40076;52.354;4.970;2022-10-19T00:44:55;102985.81;;;11.06;91.56
54172;BME280;40076;52.354;4.970;2022-10-19T00:47:01;102989.03;;;11.03;92.14
54172;BME280;40076;52.354;4.970;2022-10-19T00:49:30;102991.47;;;10.99;91.76
54172;BME280;40076;52.354;4.970;2022-10-19T00:52:01;102988.50;;;10.96;91.92
54172;BME280;40076;52.354;4.970;2022-10-19T00:54:28;102986.06;;;10.94;91.58
54172;BME280;40076;52.354;4.970;2022-10-19T00:56:56;102991.22;;;10.91;91.97
54172;BME280;40076;52.354;4.970;2022-10-19T00:59:23;102991.47;;;10.89;92.01
54172;BME280;40076;52.354;4.970;2022-10-19T01:01:51;102992.00;;;10.86;91.84
54172;BME280;40076;52.354;4.970;2022-10-19T01:04:19;102987.13;;;10.83;92.16
54172;BME280;40076;52.354;4.970;2022-10-19T01:06:45;102983.63;;;10.82;92.14
54172;BME280;40076;52.354;4.970;2022-10-19T01:09:10;102982.25;;;10.80;92.11
54172;BME280;40076;52.354;4.970;2022-10-19T01:12:02;102985.22;;;10.78;92.07
54172;BME280;40076;52.354;4.970;2022-10-19T01:17:37;102987.66;;;10.75;92.38
54172;BME280;40076;52.354;4.970;2022-10-19T01:26:06;102979.00;;;10.68;92.56
54172;BME280;40076;52.354;4.970;2022-10-19T01:31:30;102980.59;;;10.64;92.72
54172;BME280;40076;52.354;4.970;2022-10-19T01:36:46;102979.22;;;10.61;92.97
54172;BME280;40076;52.354;4.970;2022-10-19T01:39:18;102973.81;;;10.61;92.98
54172;BME280;40076;52.354;4.970;2022-10-19T01:48:02;102964.06;;;10.55;93.82
54172;BME280;40076;52.354;4.970;2022-10-19T01:50:39;102974.88;;;10.55;94.15
54172;BME280;40076;52.354;4.970;2022-10-19T01:53:08;102967.03;;;10.54;94.15
54172;BME280;40076;52.354;4.970;2022-10-19T01:55:38;102972.72;;;10.52;94.49
54172;BME280;40076;52.354;4.970;2022-10-19T01:58:08;102974.63;;;10.52;94.47
54172;BME280;40076;52.354;4.970;2022-10-19T02:00:37;102970.28;;;10.51;94.96
54172;BME280;40076;52.354;4.970;2022-10-19T02:03:04;102970.28;;;10.51;94.83
54172;BME280;40076;52.354;4.970;2022-10-19T02:05:32;102973.81;;;10.51;94.92
54172;BME280;40076;52.354;4.970;2022-10-19T02:08:01;102973.25;;;10.49;95.11
54172;BME280;40076;52.354;4.970;2022-10-19T02:10:28;102970.81;;;10.48;95.19
54172;BME280;40076;52.354;4.970;2022-10-19T02:12:57;102968.94;;;10.48;95.42
54172;BME280;40076;52.354;4.970;2022-10-19T02:15:24;102964.59;;;10.47;95.93
54172;BME280;40076;52.354;4.970;2022-10-19T02:17:53;102951.06;;;10.47;96.03
54172;BME280;40076;52.354;4.970;2022-10-19T02:20:21;102957.28;;;10.48;96.00
54172;BME280;40076;52.354;4.970;2022-10-19T02:22:47;102954.84;;;10.46;96.18
54172;BME280;40076;52.354;4.970;2022-10-19T02:25:13;102947.84;;;10.45;96.17
54172;BME280;40076;52.354;4.970;2022-10-19T02:27:40;102953.25;;;10.45;96.22
54172;BME280;40076;52.354;4.970;2022-10-19T02:30:13;102948.38;;;10.42;96.04
54172;BME280;40076;52.354;4.970;2022-10-19T02:32:40;102952.16;;;10.41;96.30
54172;BME280;40076;52.354;4.970;2022-10-19T02:35:06;102950.53;;;10.40;96.34
54172;BME280;40076;52.354;4.970;2022-10-19T02:37:32;102948.06;;;10.38;96.41
54172;BME280;40076;52.354;4.970;2022-10-19T02:39:57;102949.97;;;10.38;96.22
54172;BME280;40076;52.354;4.970;2022-10-19T02:42:37;102949.44;;;10.36;96.08
54172;BME280;40076;52.354;4.970;2022-10-19T02:47:34;102944.81;;;10.31;96.13
54172;BME280;40076;52.354;4.970;2022-10-19T02:50:00;102942.38;;;10.30;96.12
54172;BME280;40076;52.354;4.970;2022-10-19T02:52:28;102942.66;;;10.28;95.86
54172;BME280;40076;52.354;4.970;2022-10-19T02:54:54;102942.91;;;10.27;95.87
54172;BME280;40076;52.354;4.970;2022-10-19T02:57:22;102944.25;;;10.24;95.81
54172;BME280;40076;52.354;4.970;2022-10-19T02:59:48;102936.16;;;10.24;95.81
54172;BME280;40076;52.354;4.970;2022-10-19T03:02:14;102933.19;;;10.21;95.79
54172;BME280;40076;52.354;4.970;2022-10-19T03:04:40;102938.84;;;10.19;95.17
54172;BME280;40076;52.354;4.970;2022-10-19T03:07:07;102939.31;;;10.16;95.62
54172;BME280;40076;52.354;4.970;2022-10-19T03:09:32;102938.81;;;10.14;95.57
54172;BME280;40076;52.354;4.970;2022-10-19T03:11:58;102942.84;;;10.12;95.52
54172;BME280;40076;52.354;4.970;2022-10-19T03:14:23;102943.34;;;10.08;95.64
54172;BME280;40076;52.354;4.970;2022-10-19T03:16:48;102939.00;;;10.07;95.57
54172;BME280;40076;52.354;4.970;2022-10-19T03:19:14;102942.81;;;10.06;95.42
54172;BME280;40076;52.354;4.970;2022-10-19T03:21:39;102925.50;;;10.02;95.48
54172;BME280;40076;52.354;4.970;2022-10-19T03:24:04;102926.56;;;10.01;95.64
54172;BME280;40076;52.354;4.970;2022-10-19T03:26:30;102929.28;;;10.01;95.76
54172;BME280;40076;52.354;4.970;2022-10-19T03:28:55;102928.72;;;9.99;95.68
54172;BME280;40076;52.354;4.970;2022-10-19T03:31:21;102927.13;;;9.98;95.63
54172;BME280;40076;52.354;4.970;2022-10-19T03:33:46;102926.56;;;9.96;95.62
54172;BME280;40076;52.354;4.970;2022-10-19T03:36:35;102932.47;;;9.93;95.59
54172;BME280;40076;52.354;4.970;2022-10-19T03:39:04;102921.16;;;9.91;95.41
54172;BME280;40076;52.354;4.970;2022-10-19T03:41:32;102917.88;;;9.89;95.75
54172;BME280;40076;52.354;4.970;2022-10-19T03:43:58;102922.47;;;9.89;95.29
54172;BME280;40076;52.354;4.970;2022-10-19T03:46:25;102918.41;;;9.86;95.38
54172;BME280;40076;52.354;4.970;2022-10-19T03:48:50;102925.69;;;9.86;95.23
54172;BME280;40076;52.354;4.970;2022-10-19T03:51:19;102922.72;;;9.82;95.24
54172;BME280;40076;52.354;4.970;2022-10-19T03:53:45;102919.22;;;9.82;95.11
54172;BME280;40076;52.354;4.970;2022-10-19T03:56:16;102917.00;;;9.79;94.96
54172;BME280;40076;52.354;4.970;2022-10-19T03:58:43;102914.56;;;9.77;94.80
54172;BME280;40076;52.354;4.970;2022-10-19T04:01:12;102909.72;;;9.74;94.63
54172;BME280;40076;52.354;4.970;2022-10-19T04:03:38;102911.03;;;9.72;94.60
54172;BME280;40076;52.354;4.970;2022-10-19T04:06:05;102915.63;;;9.71;94.59
54172;BME280;40076;52.354;4.970;2022-10-19T04:08:31;102913.19;;;9.69;94.46
54172;BME280;40076;52.354;4.970;2022-10-19T04:11:01;102914.81;;;9.65;94.46
54172;BME280;40076;52.354;4.970;2022-10-19T04:13:28;102923.97;;;9.64;94.42
54172;BME280;40076;52.354;4.970;2022-10-19T04:15:53;102922.59;;;9.62;94.32
54172;BME280;40076;52.354;4.970;2022-10-19T04:18:19;102922.88;;;9.60;94.57
54172;BME280;40076;52.354;4.970;2022-10-19T04:20:44;102921.50;;;9.58;94.63
54172;BME280;40076;52.354;4.970;2022-10-19T04:23:09;102925.28;;;9.57;94.49
54172;BME280;40076;52.354;4.970;2022-10-19T04:25:35;102921.19;;;9.54;94.53
54172;BME280;40076;52.354;4.970;2022-10-19T04:28:00;102924.19;;;9.53;94.59
54172;BME280;40076;52.354;4.970;2022-10-19T04:30:25;102927.94;;;9.52;94.45
54172;BME280;40076;52.354;4.970;2022-10-19T04:32:50;102920.91;;;9.51;94.51
54172;BME280;40076;52.354;4.970;2022-10-19T04:35:16;102922.25;;;9.48;94.59
54172;BME280;40076;52.354;4.970;2022-10-19T04:37:41;102918.72;;;9.48;94.36
54172;BME280;40076;52.354;4.970;2022-10-19T04:40:07;102921.69;;;9.46;94.53
54172;BME280;40076;52.354;4.970;2022-10-19T04:42:32;102922.78;;;9.45;94.27
54172;BME280;40076;52.354;4.970;2022-10-19T04:44:58;102922.78;;;9.45;94.26
54172;BME280;40076;52.354;4.970;2022-10-19T04:47:23;102928.44;;;9.44;94.33
54172;BME280;40076;52.354;4.970;2022-10-19T04:49:48;102917.09;;;9.42;94.15
54172;BME280;40076;52.354;4.970;2022-10-19T04:52:14;102915.44;;;9.41;94.05
54172;BME280;40076;52.354;4.970;2022-10-19T04:54:39;102914.88;;;9.39;94.11
54172;BME280;40076;52.354;4.970;2022-10-19T04:57:04;102913.28;;;9.38;94.43
54172;BME280;40076;52.354;4.970;2022-10-19T04:59:30;102915.16;;;9.37;94.09
54172;BME280;40076;52.354;4.970;2022-10-19T05:01:55;102914.06;;;9.33;94.02
54172;BME280;40076;52.354;4.970;2022-10-19T05:04:20;102914.31;;;9.32;94.21
54172;BME280;40076;52.354;4.970;2022-10-19T05:06:45;102909.19;;;9.30;94.31
54172;BME280;40076;52.354;4.970;2022-10-19T05:09:11;102911.31;;;9.28;94.34
54172;BME280;40076;52.354;4.970;2022-10-19T05:11:37;102907.25;;;9.25;94.35
54172;BME280;40076;52.354;4.970;2022-10-19T05:14:04;102902.94;;;9.24;94.61
54172;BME280;40076;52.354;4.970;2022-10-19T05:16:30;102897.00;;;9.22;94.57
54172;BME280;40076;52.354;4.970;2022-10-19T05:18:55;102897.00;;;9.22;94.44
54172;BME280;40076;52.354;4.970;2022-10-19T05:21:22;102901.84;;;9.20;94.74
54172;BME280;40076;52.354;4.970;2022-10-19T05:23:52;102900.19;;;9.19;95.00
54172;BME280;40076;52.354;4.970;2022-10-19T05:26:20;102906.66;;;9.18;95.04
54172;BME280;40076;52.354;4.970;2022-10-19T05:28:47;102901.53;;;9.17;94.63
54172;BME280;40076;52.354;4.970;2022-10-19T05:31:17;102910.69;;;9.16;94.92
54172;BME280;40076;52.354;4.970;2022-10-19T05:33:43;102909.91;;;9.15;95.02
54172;BME280;40076;52.354;4.970;2022-10-19T05:36:26;102902.06;;;9.14;95.01
54172;BME280;40076;52.354;4.970;2022-10-19T05:38:53;102902.31;;;9.12;94.68
54172;BME280;40076;52.354;4.970;2022-10-19T05:41:20;102911.47;;;9.11;95.03
54172;BME280;40076;52.354;4.970;2022-10-19T05:43:46;102909.03;;;9.10;94.96
54172;BME280;40076;52.354;4.970;2022-10-19T05:46:14;102915.75;;;9.07;95.34
54172;BME280;40076;52.354;4.970;2022-10-19T05:48:43;102914.13;;;9.06;95.17
54172;BME280;40076;52.354;4.970;2022-10-19T05:51:11;102901.97;;;9.04;95.40
54172;BME280;40076;52.354;4.970;2022-10-19T05:53:37;102909.00;;;9.05;95.27
54172;BME280;40076;52.354;4.970;2022-10-19T05:56:04;102901.16;;;9.03;95.38
54172;BME280;40076;52.354;4.970;2022-10-19T05:58:30;102908.44;;;9.03;95.51
54172;BME280;40076;52.354;4.970;2022-10-19T06:00:57;102902.22;;;9.02;95.57
54172;BME280;40076;52.354;4.970;2022-10-19T06:03:23;102909.50;;;9.02;95.58
54172;BME280;40076;52.354;4.970;2022-10-19T06:05:49;102912.19;;;9.02;95.62
54172;BME280;40076;52.354;4.970;2022-10-19T06:08:16;102912.44;;;9.00;95.65
54172;BME280;40076;52.354;4.970;2022-10-19T06:10:51;102909.22;;;8.98;95.69
54172;BME280;40076;52.354;4.970;2022-10-19T06:13:28;102912.97;;;8.97;95.32
54172;BME280;40076;52.354;4.970;2022-10-19T06:15:53;102908.09;;;8.94;95.79
54172;BME280;40076;52.354;4.970;2022-10-19T06:18:18;102902.16;;;8.92;95.67
54172;BME280;40076;52.354;4.970;2022-10-19T06:20:44;102908.63;;;8.91;95.64
54172;BME280;40076;52.354;4.970;2022-10-19T06:23:09;102904.28;;;8.90;95.80
54172;BME280;40076;52.354;4.970;2022-10-19T06:25:35;102910.75;;;8.89;95.99
54172;BME280;40076;52.354;4.970;2022-10-19T06:28:01;102914.50;;;8.88;95.99
54172;BME280;40076;52.354;4.970;2022-10-19T06:30:27;102920.16;;;8.86;96.18
54172;BME280;40076;52.354;4.970;2022-10-19T06:32:54;102920.41;;;8.85;96.49
54172;BME280;40076;52.354;4.970;2022-10-19T06:35:19;102913.94;;;8.86;96.95
54172;BME280;40076;52.354;4.970;2022-10-19T06:37:45;102912.06;;;8.86;97.43
54172;BME280;40076;52.354;4.970;2022-10-19T06:40:10;102913.44;;;8.89;98.09
54172;BME280;40076;52.354;4.970;2022-10-19T06:42:35;102916.97;;;8.89;98.47
54172;BME280;40076;52.354;4.970;2022-10-19T06:45:08;102915.63;;;8.92;99.72
54172;BME280;40076;52.354;4.970;2022-10-19T06:47:36;102914.03;;;8.96;100.00
54172;BME280;40076;52.354;4.970;2022-10-19T06:50:04;102910.31;;;9.02;100.00
54172;BME280;40076;52.354;4.970;2022-10-19T06:52:29;102914.41;;;9.10;100.00
54172;BME280;40076;52.354;4.970;2022-10-19T06:54:54;102907.44;;;9.14;100.00
54172;BME280;40076;52.354;4.970;2022-10-19T06:57:20;102909.09;;;9.20;100.00
54172;BME280;40076;52.354;4.970;2022-10-19T06:59:45;102906.44;;;9.25;100.00
54172;BME280;40076;52.354;4.970;2022-10-19T07:02:11;102913.78;;;9.29;100.00
54172;BME280;40076;52.354;4.970;2022-10-19T07:04:36;102911.09;;;9.35;100.00
54172;BME280;40076;52.354;4.970;2022-10-19T07:07:02;102899.78;;;9.38;100.00
54172;BME280;40076;52.354;4.970;2022-10-19T07:09:28;102896.81;;;9.39;100.00
54172;BME280;40076;52.354;4.970;2022-10-19T07:11:53;102896.06;;;9.44;100.00
54172;BME280;40076;52.354;4.970;2022-10-19T07:14:19;102894.44;;;9.48;100.00
54172;BME280;40076;52.354;4.970;2022-10-19T07:16:48;102906.63;;;9.50;100.00
54172;BME280;40076;52.354;4.970;2022-10-19T07:19:14;102901.50;;;9.54;100.00
54172;BME280;40076;52.354;4.970;2022-10-19T07:21:39;102906.63;;;9.55;100.00
54172;BME280;40076;52.354;4.970;2022-10-19T07:24:06;102903.16;;;9.60;100.00
54172;BME280;40076;52.354;4.970;2022-10-19T07:26:32;102904.25;;;9.64;100.00
54172;BME280;40076;52.354;4.970;2022-10-19T07:28:58;102895.38;;;9.68;100.00
54172;BME280;40076;52.354;4.970;2022-10-19T07:31:25;102894.84;;;9.72;100.00
54172;BME280;40076;52.354;4.970;2022-10-19T07:34:02;102888.69;;;9.76;100.00
54172;BME280;40076;52.354;4.970;2022-10-19T07:36:31;102902.19;;;9.81;100.00
54172;BME280;40076;52.354;4.970;2022-10-19T07:38:57;102902.75;;;9.83;100.00
54172;BME280;40076;52.354;4.970;2022-10-19T07:41:24;102904.38;;;9.89;100.00
54172;BME280;40076;52.354;4.970;2022-10-19T07:43:50;102907.66;;;9.91;100.00
54172;BME280;40076;52.354;4.970;2022-10-19T07:46:21;102903.31;;;9.95;100.00
54172;BME280;40076;52.354;4.970;2022-10-19T07:48:47;102909.81;;;9.99;100.00
54172;BME280;40076;52.354;4.970;2022-10-19T07:51:14;102908.22;;;10.03;100.00
54172;BME280;40076;52.354;4.970;2022-10-19T07:53:40;102903.91;;;10.07;100.00
54172;BME280;40076;52.354;4.970;2022-10-19T07:56:08;102910.41;;;10.12;100.00
54172;BME280;40076;52.354;4.970;2022-10-19T07:58:35;102909.88;;;10.15;100.00
54172;BME280;40076;52.354;4.970;2022-10-19T08:01:07;102907.50;;;10.18;100.00
54172;BME280;40076;52.354;4.970;2022-10-19T08:03:33;102911.28;;;10.22;100.00
54172;BME280;40076;52.354;4.970;2022-10-19T08:06:00;102914.28;;;10.26;100.00
54172;BME280;40076;52.354;4.970;2022-10-19T08:08:26;102906.72;;;10.28;100.00
54172;BME280;40076;52.354;4.970;2022-10-19T08:10:51;102919.69;;;10.31;100.00
54172;BME280;40076;52.354;4.970;2022-10-19T08:13:17;102914.56;;;10.34;100.00
54172;BME280;40076;52.354;4.970;2022-10-19T08:15:42;102918.34;;;10.38;100.00
54172;BME280;40076;52.354;4.970;2022-10-19T08:18:07;102911.59;;;10.41;100.00
54172;BME280;40076;52.354;4.970;2022-10-19T08:20:32;102912.97;;;10.43;100.00
54172;BME280;40076;52.354;4.970;2022-10-19T08:22:58;102910.78;;;10.45;100.00
54172;BME280;40076;52.354;4.970;2022-10-19T08:25:23;102910.28;;;10.49;100.00
54172;BME280;40076;52.354;4.970;2022-10-19T08:27:48;102907.84;;;10.52;100.00
54172;BME280;40076;52.354;4.970;2022-10-19T08:30:14;102911.91;;;10.55;100.00
54172;BME280;40076;52.354;4.970;2022-10-19T08:32:39;102905.16;;;10.57;100.00
54172;BME280;40076;52.354;4.970;2022-10-19T08:35:05;102908.94;;;10.61;100.00
54172;BME280;40076;52.354;4.970;2022-10-19T08:37:30;102905.69;;;10.64;100.00
54172;BME280;40076;52.354;4.970;2022-10-19T08:39:56;102901.66;;;10.67;100.00
54172;BME280;40076;52.354;4.970;2022-10-19T08:42:30;102907.59;;;10.69;100.00
54172;BME280;40076;52.354;4.970;2022-10-19T08:45:02;102905.44;;;10.71;100.00
54172;BME280;40076;52.354;4.970;2022-10-19T08:50:22;102894.63;;;10.76;100.00
54172;BME280;40076;52.354;4.970;2022-10-19T08:52:54;102899.75;;;10.77;100.00
54172;BME280;40076;52.354;4.970;2022-10-19T08:55:28;102901.38;;;10.83;100.00
54172;BME280;40076;52.354;4.970;2022-10-19T08:58:18;102893.28;;;10.89;100.00
54172;BME280;40076;52.354;4.970;2022-10-19T09:03:34;102878.41;;;10.96;100.00
54172;BME280;40076;52.354;4.970;2022-10-19T09:08:51;102871.91;;;11.02;100.00
54172;BME280;40076;52.354;4.970;2022-10-19T09:11:22;102865.97;;;11.05;100.00
54172;BME280;40076;52.354;4.970;2022-10-19T09:13:55;102860.81;;;11.09;100.00
54172;BME280;40076;52.354;4.970;2022-10-19T09:16:23;102859.69;;;11.15;100.00
54172;BME280;40076;52.354;4.970;2022-10-19T09:18:49;102859.72;;;11.20;100.00
54172;BME280;40076;52.354;4.970;2022-10-19T09:21:15;102860.22;;;11.22;100.00
54172;BME280;40076;52.354;4.970;2022-10-19T09:23:46;102861.59;;;11.25;100.00
54172;BME280;40076;52.354;4.970;2022-10-19T09:26:16;102858.34;;;11.28;100.00
54172;BME280;40076;52.354;4.970;2022-10-19T09:31:53;102847.78;;;11.36;99.10
54172;BME280;40076;52.354;4.970;2022-10-19T09:34:29;102846.13;;;11.40;98.61
54172;BME280;40076;52.354;4.970;2022-10-19T09:36:57;102831.25;;;11.43;97.57
54172;BME280;40076;52.354;4.970;2022-10-19T09:39:26;102829.03;;;11.45;96.91
54172;BME280;40076;52.354;4.970;2022-10-19T09:41:59;102834.72;;;11.48;96.96
54172;BME280;40076;52.354;4.970;2022-10-19T09:44:29;102840.13;;;11.53;96.93
54172;BME280;40076;52.354;4.970;2022-10-19T09:52:39;102833.31;;;11.61;95.91
54172;BME280;40076;52.354;4.970;2022-10-19T09:55:25;102841.72;;;11.59;94.76
54172;BME280;40076;52.354;4.970;2022-10-19T09:57:59;102841.16;;;11.68;95.06
54172;BME280;40076;52.354;4.970;2022-10-19T10:00:32;102829.78;;;11.71;94.19
54172;BME280;40076;52.354;4.970;2022-10-19T10:02:57;102843.63;;;11.74;94.09
54172;BME280;40076;52.354;4.970;2022-10-19T10:05:35;102832.75;;;11.79;94.19
54172;BME280;40076;52.354;4.970;2022-10-19T10:08:01;102834.59;;;11.84;93.95
54172;BME280;40076;52.354;4.970;2022-10-19T10:10:33;102829.72;;;11.86;93.44
54172;BME280;40076;52.354;4.970;2022-10-19T10:13:01;102836.22;;;11.90;92.71
54172;BME280;40076;52.354;4.970;2022-10-19T10:15:42;102828.88;;;11.90;91.06
54172;BME280;40076;52.354;4.970;2022-10-19T10:18:12;102832.66;;;11.94;90.79
54172;BME280;40076;52.354;4.970;2022-10-19T10:20:59;102838.31;;;11.98;89.14
54172;BME280;40076;52.354;4.970;2022-10-19T10:23:28;102837.50;;;12.03;89.92
54172;BME280;40076;52.354;4.970;2022-10-19T10:25:57;102842.34;;;12.06;89.65
54172;BME280;40076;52.354;4.970;2022-10-19T10:28:25;102832.31;;;12.06;88.94
54172;BME280;40076;52.354;4.970;2022-10-19T10:31:03;102833.94;;;12.12;89.11
54172;BME280;40076;52.354;4.970;2022-10-19T10:33:34;102829.84;;;12.15;88.50
54172;BME280;40076;52.354;4.970;2022-10-19T10:36:06;102828.47;;;12.17;88.00
54172;BME280;40076;52.354;4.970;2022-10-19T10:38:36;102825.22;;;12.20;88.29
54172;BME280;40076;52.354;4.970;2022-10-19T10:41:05;102828.97;;;12.24;88.01
54172;BME280;40076;52.354;4.970;2022-10-19T10:43:38;102812.75;;;12.19;85.72
54172;BME280;40076;52.354;4.970;2022-10-19T10:46:15;102801.59;;;12.26;86.26
54172;BME280;40076;52.354;4.970;2022-10-19T10:48:57;102810.53;;;12.21;85.12
54172;BME280;40076;52.354;4.970;2022-10-19T10:51:31;102802.63;;;12.30;86.22
54172;BME280;40076;52.354;4.970;2022-10-19T10:54:19;102799.63;;;12.31;86.40
54172;BME280;40076;52.354;4.970;2022-10-19T10:57:14;102791.47;;;12.36;86.83
54172;BME280;40076;52.354;4.970;2022-10-19T10:59:54;102788.25;;;12.34;85.25
54172;BME280;40076;52.354;4.970;2022-10-19T11:05:00;102771.38;;;12.37;84.29
54172;BME280;40076;52.354;4.970;2022-10-19T11:07:28;102765.94;;;12.43;84.65
54172;BME280;40076;52.354;4.970;2022-10-19T11:10:03;102761.34;;;12.43;83.87
54172;BME280;40076;52.354;4.970;2022-10-19T11:13:09;102755.59;;;12.50;83.59
54172;BME280;40076;52.354;4.970;2022-10-19T11:15:51;102754.50;;;12.51;83.39
54172;BME280;40076;52.354;4.970;2022-10-19T11:18:22;102755.59;;;12.50;82.32
54172;BME280;40076;52.354;4.970;2022-10-19T11:20:58;102742.53;;;12.52;82.28
54172;BME280;40076;52.354;4.970;2022-10-19T11:23:35;102733.84;;;12.55;82.44
54172;BME280;40076;52.354;4.970;2022-10-19T11:29:06;102726.69;;;12.64;82.56
54172;BME280;40076;52.354;4.970;2022-10-19T11:31:46;102713.13;;;12.64;81.96
54172;BME280;40076;52.354;4.970;2022-10-19T11:36:54;102703.56;;;12.71;81.23
54172;BME280;40076;52.354;4.970;2022-10-19T11:42:11;102687.16;;;12.82;81.76
54172;BME280;40076;52.354;4.970;2022-10-19T11:52:53;102670.78;;;12.92;79.16
54172;BME280;40076;52.354;4.970;2022-10-19T12:06:38;102642.34;;;13.08;80.07
54172;BME280;40076;52.354;4.970;2022-10-19T12:14:50;102615.44;;;13.11;79.21
54172;BME280;40076;52.354;4.970;2022-10-19T12:17:23;102608.88;;;13.18;79.59
54172;BME280;40076;52.354;4.970;2022-10-19T12:19:53;102598.22;;;13.21;79.87
54172;BME280;40076;52.354;4.970;2022-10-19T12:22:23;102598.47;;;13.25;80.15
54172;BME280;40076;52.354;4.970;2022-10-19T12:24:49;102599.47;;;13.29;79.90
54172;BME280;40076;52.354;4.970;2022-10-19T12:27:26;102590.75;;;13.32;79.22
54172;BME280;40076;52.354;4.970;2022-10-19T12:29:54;102583.63;;;13.36;78.67
54172;BME280;40076;52.354;4.970;2022-10-19T12:32:22;102577.09;;;13.37;78.37
54172;BME280;40076;52.354;4.970;2022-10-19T12:42:46;102578.03;;;13.46;79.06
54172;BME280;40076;52.354;4.970;2022-10-19T12:45:25;102579.66;;;13.47;78.46
54172;BME280;40076;52.354;4.970;2022-10-19T12:53:33;102565.19;;;13.51;77.75
54172;BME280;40076;52.354;4.970;2022-10-19T12:56:04;102545.06;;;13.52;77.47
54172;BME280;40076;52.354;4.970;2022-10-19T13:01:54;102543.88;;;13.59;77.22
54172;BME280;40076;52.354;4.970;2022-10-19T13:04:11;102541.47;;;13.57;76.96
54172;BME280;40076;52.354;4.970;2022-10-19T13:06:42;102531.63;;;13.61;77.13
54172;BME280;40076;52.354;4.970;2022-10-19T13:14:49;102528.50;;;13.68;76.26
54172;BME280;40076;52.354;4.970;2022-10-19T13:33:41;102497.53;;;13.82;75.71
54172;BME280;40076;52.354;4.970;2022-10-19T13:36:08;102500.25;;;13.82;75.36
54172;BME280;40076;52.354;4.970;2022-10-19T13:41:19;102504.31;;;13.85;74.00
54172;BME280;40076;52.354;4.970;2022-10-19T13:43:51;102500.78;;;13.84;74.36
54172;BME280;40076;52.354;4.970;2022-10-19T13:49:22;102497.75;;;13.86;74.08
54172;BME280;40076;52.354;4.970;2022-10-19T14:06:31;102492.22;;;13.91;74.66
54172;BME280;40076;52.354;4.970;2022-10-19T14:11:39;102488.91;;;13.94;74.76
54172;BME280;40076;52.354;4.970;2022-10-19T14:14:11;102485.38;;;13.94;74.19
54172;BME280;40076;52.354;4.970;2022-10-19T14:16:59;102491.81;;;13.98;74.13
54172;BME280;40076;52.354;4.970;2022-10-19T14:20:00;102480.13;;;13.97;73.81
54172;BME280;40076;52.354;4.970;2022-10-19T14:22:31;102489.31;;;14.01;74.12
54172;BME280;40076;52.354;4.970;2022-10-19T14:25:18;102487.41;;;14.02;73.79
54172;BME280;40076;52.354;4.970;2022-10-19T14:27:45;102491.75;;;14.03;73.82
54172;BME280;40076;52.354;4.970;2022-10-19T14:30:26;102487.88;;;14.04;73.30
54172;BME280;40076;52.354;4.970;2022-10-19T14:32:56;102489.50;;;14.05;73.16
54172;BME280;40076;52.354;4.970;2022-10-19T14:35:30;102485.16;;;14.04;73.29
54172;BME280;40076;52.354;4.970;2022-10-19T14:37:56;102474.31;;;14.04;72.84
54172;BME280;40076;52.354;4.970;2022-10-19T14:40:26;102469.88;;;14.08;73.09
54172;BME280;40076;52.354;4.970;2022-10-19T14:42:51;102462.84;;;14.07;72.94
54172;BME280;40076;52.354;4.970;2022-10-19T14:45:22;102456.59;;;14.06;72.95
54172;BME280;40076;52.354;4.970;2022-10-19T14:50:18;102456.19;;;14.13;73.44
54172;BME280;40076;52.354;4.970;2022-10-19T14:52:46;102455.59;;;14.16;73.69
54172;BME280;40076;52.354;4.970;2022-10-19T14:55:17;102443.09;;;14.15;73.47
54172;BME280;40076;52.354;4.970;2022-10-19T14:57:45;102447.72;;;14.14;73.02
54172;BME280;40076;52.354;4.970;2022-10-19T15:00:17;102447.44;;;14.16;73.07
54172;BME280;40076;52.354;4.970;2022-10-19T15:02:59;102440.09;;;14.16;73.08
54172;BME280;40076;52.354;4.970;2022-10-19T15:05:27;102442.81;;;14.16;72.83
54172;BME280;40076;52.354;4.970;2022-10-19T15:07:55;102432.22;;;14.15;72.57
54172;BME280;40076;52.354;4.970;2022-10-19T15:10:27;102427.91;;;14.14;72.20
54172;BME280;40076;52.354;4.970;2022-10-19T15:13:02;102424.06;;;14.15;71.99
54172;BME280;40076;52.354;4.970;2022-10-19T15:15:30;102416.22;;;14.13;72.36
54172;BME280;40076;52.354;4.970;2022-10-19T15:20:36;102403.25;;;14.10;72.51
54172;BME280;40076;52.354;4.970;2022-10-19T15:23:45;102397.00;;;14.10;72.62